sensor_id;sensor_type;location;lat;lon;timestamp;temperature;humidity
5286;DHT22;2665;53.112;7.358;2023-09-19T00:52:37;14.70;1.00
5286;DHT22;2665;53.112;7.358;2023-09-19T00:55:07;14.70;1.00
5286;DHT22;2665;53.112;7.358;2023-09-19T00:57:34;14.70;1.00
5286;DHT22;2665;53.112;7.358;2023-09-19T01:00:01;14.60;1.00
5286;DHT22;2665;53.112;7.358;2023-09-19T01:02:32;14.60;1.00
5286;DHT22;2665;53.112;7.358;2023-09-19T01:04:59;14.50;1.00
5286;DHT22;2665;53.112;7.358;2023-09-19T01:07:26;14.50;1.00
5286;DHT22;2665;53.112;7.358;2023-09-19T01:09:52;14.40;1.00
5286;DHT22;2665;53.112;7.358;2023-09-19T01:12:30;14.40;1.00
5286;DHT22;2665;53.112;7.358;2023-09-19T01:15:11;14.40;1.00
5286;DHT22;2665;53.112;7.358;2023-09-19T01:17:52;14.30;1.00
5286;DHT22;2665;53.112;7.358;2023-09-19T01:20:41;14.30;1.00
5286;DHT22;2665;53.112;7.358;2023-09-19T01:23:38;14.20;1.00
5286;DHT22;2665;53.112;7.358;2023-09-19T01:26:06;14.20;1.00
5286;DHT22;2665;53.112;7.358;2023-09-19T01:32:03;14.20;1.00
5286;DHT22;2665;53.112;7.358;2023-09-19T01:34:50;14.10;1.00
5286;DHT22;2665;53.112;7.358;2023-09-19T01:37:17;14.10;1.00
5286;DHT22;2665;53.112;7.358;2023-09-19T01:39:53;14.10;1.00
5286;DHT22;2665;53.112;7.358;2023-09-19T01:47:52;14.10;1.00
5286;DHT22;2665;53.112;7.358;2023-09-19T01:53:24;14.00;1.00
5286;DHT22;2665;53.112;7.358;2023-09-19T01:55:51;14.00;1.00
5286;DHT22;2665;53.112;7.358;2023-09-19T01:58:25;13.90;1.00
5286;DHT22;2665;53.112;7.358;2023-09-19T02:00:54;13.90;1.00
5286;DHT22;2665;53.112;7.358;2023-09-19T02:03:21;13.80;1.00
5286;DHT22;2665;53.112;7.358;2023-09-19T02:05:51;13.80;1.00
5286;DHT22;2665;53.112;7.358;2023-09-19T02:08:20;13.80;1.00
5286;DHT22;2665;53.112;7.358;2023-09-19T02:10:46;13.80;1.00
5286;DHT22;2665;53.112;7.358;2023-09-19T02:13:22;13.80;1.00
5286;DHT22;2665;53.112;7.358;2023-09-19T02:15:51;13.70;1.00
5286;DHT22;2665;53.112;7.358;2023-09-19T02:18:16;13.70;1.00
5286;DHT22;2665;53.112;7.358;2023-09-19T02:20:43;13.70;1.00
5286;DHT22;2665;53.112;7.358;2023-09-19T02:23:10;13.70;1.00
5286;DHT22;2665;53.112;7.358;2023-09-19T02:25:36;13.70;1.00
5286;DHT22;2665;53.112;7.358;2023-09-19T02:28:03;13.70;1.00
5286;DHT22;2665;53.112;7.358;2023-09-19T02:30:30;13.70;1.00
5286;DHT22;2665;53.112;7.358;2023-09-19T02:32:56;13.70;1.00
5286;DHT22;2665;53.112;7.358;2023-09-19T02:35:22;13.70;1.00
5286;DHT22;2665;53.112;7.358;2023-09-19T02:37:48;13.70;1.00
5286;DHT22;2665;53.112;7.358;2023-09-19T02:40:14;13.70;1.00
5286;DHT22;2665;53.112;7.358;2023-09-19T02:42:53;13.70;1.00
5286;DHT22;2665;53.112;7.358;2023-09-19T02:45:19;13.70;1.00
5286;DHT22;2665;53.112;7.358;2023-09-19T02:47:46;13.70;1.00
5286;DHT22;2665;53.112;7.358;2023-09-19T02:50:12;13.70;1.00
5286;DHT22;2665;53.112;7.358;2023-09-19T02:52:41;13.70;1.00
5286;DHT22;2665;53.112;7.358;2023-09-19T02:55:09;13.60;1.00
5286;DHT22;2665;53.112;7.358;2023-09-19T02:57:38;13.60;1.00
5286;DHT22;2665;53.112;7.358;2023-09-19T03:00:07;13.60;1.00
5286;DHT22;2665;53.112;7.358;2023-09-19T03:02:35;13.60;1.00
5286;DHT22;2665;53.112;7.358;2023-09-19T03:05:01;13.60;1.00
5286;DHT22;2665;53.112;7.358;2023-09-19T03:07:28;13.60;1.00
5286;DHT22;2665;53.112;7.358;2023-09-19T03:09:54;13.60;1.00
5286;DHT22;2665;53.112;7.358;2023-09-19T03:12:20;13.50;1.00
5286;DHT22;2665;53.112;7.358;2023-09-19T03:14:46;13.50;1.00
5286;DHT22;2665;53.112;7.358;2023-09-19T03:17:11;13.50;1.00
5286;DHT22;2665;53.112;7.358;2023-09-19T03:19:40;13.50;1.00
5286;DHT22;2665;53.112;7.358;2023-09-19T03:22:05;13.50;1.00
5286;DHT22;2665;53.112;7.358;2023-09-19T03:24:31;13.50;1.00
5286;DHT22;2665;53.112;7.358;2023-09-19T03:26:59;13.50;1.00
5286;DHT22;2665;53.112;7.358;2023-09-19T03:29:24;13.40;1.00
5286;DHT22;2665;53.112;7.358;2023-09-19T03:31:51;13.50;1.00
5286;DHT22;2665;53.112;7.358;2023-09-19T03:34:16;13.50;1.00
5286;DHT22;2665;53.112;7.358;2023-09-19T03:36:42;13.50;1.00
5286;DHT22;2665;53.112;7.358;2023-09-19T03:39:08;13.50;1.00
5286;DHT22;2665;53.112;7.358;2023-09-19T03:41:34;13.50;1.00
5286;DHT22;2665;53.112;7.358;2023-09-19T03:44:02;13.50;1.00
5286;DHT22;2665;53.112;7.358;2023-09-19T03:46:28;13.50;1.00
5286;DHT22;2665;53.112;7.358;2023-09-19T03:48:54;13.50;1.00
5286;DHT22;2665;53.112;7.358;2023-09-19T03:51:20;13.50;1.00
5286;DHT22;2665;53.112;7.358;2023-09-19T03:53:46;13.40;1.00
5286;DHT22;2665;53.112;7.358;2023-09-19T03:56:12;13.50;1.00
5286;DHT22;2665;53.112;7.358;2023-09-19T03:58:37;13.40;1.00
5286;DHT22;2665;53.112;7.358;2023-09-19T04:01:05;13.40;1.00
5286;DHT22;2665;53.112;7.358;2023-09-19T04:03:33;13.50;1.00
5286;DHT22;2665;53.112;7.358;2023-09-19T04:06:15;13.50;1.00
5286;DHT22;2665;53.112;7.358;2023-09-19T04:08:41;13.50;1.00
5286;DHT22;2665;53.112;7.358;2023-09-19T04:11:08;13.60;99.90
5286;DHT22;2665;53.112;7.358;2023-09-19T04:13:33;13.60;99.90
5286;DHT22;2665;53.112;7.358;2023-09-19T04:15:59;13.60;99.90
5286;DHT22;2665;53.112;7.358;2023-09-19T04:18:25;13.60;99.90
5286;DHT22;2665;53.112;7.358;2023-09-19T04:20:51;13.60;99.90
5286;DHT22;2665;53.112;7.358;2023-09-19T04:23:17;13.60;99.90
5286;DHT22;2665;53.112;7.358;2023-09-19T04:25:43;13.60;99.90
5286;DHT22;2665;53.112;7.358;2023-09-19T04:28:09;13.60;99.90
5286;DHT22;2665;53.112;7.358;2023-09-19T04:30:38;13.60;99.90
5286;DHT22;2665;53.112;7.358;2023-09-19T04:33:06;13.60;99.90
5286;DHT22;2665;53.112;7.358;2023-09-19T04:35:32;13.60;99.90
5286;DHT22;2665;53.112;7.358;2023-09-19T04:37:58;13.60;68.10
5286;DHT22;2665;53.112;7.358;2023-09-19T04:40:24;13.60;3.60
5286;DHT22;2665;53.112;7.358;2023-09-19T04:42:58;13.60;1.00
5286;DHT22;2665;53.112;7.358;2023-09-19T04:45:24;13.60;1.00
5286;DHT22;2665;53.112;7.358;2023-09-19T04:47:52;13.60;1.00
5286;DHT22;2665;53.112;7.358;2023-09-19T04:50:18;13.50;1.00
5286;DHT22;2665;53.112;7.358;2023-09-19T04:52:45;13.50;1.00
5286;DHT22;2665;53.112;7.358;2023-09-19T04:55:13;13.60;1.00
5286;DHT22;2665;53.112;7.358;2023-09-19T04:57:49;13.60;1.00
5286;DHT22;2665;53.112;7.358;2023-09-19T05:00:19;13.60;1.00
5286;DHT22;2665;53.112;7.358;2023-09-19T05:02:54;13.60;1.00
5286;DHT22;2665;53.112;7.358;2023-09-19T05:05:22;13.60;3.50
5286;DHT22;2665;53.112;7.358;2023-09-19T05:07:49;13.60;76.50
5286;DHT22;2665;53.112;7.358;2023-09-19T05:10:15;13.60;99.90
5286;DHT22;2665;53.112;7.358;2023-09-19T05:12:41;13.70;99.90
5286;DHT22;2665;53.112;7.358;2023-09-19T05:15:08;13.70;99.90
5286;DHT22;2665;53.112;7.358;2023-09-19T05:17:34;13.70;99.90
5286;DHT22;2665;53.112;7.358;2023-09-19T05:20:03;13.80;99.90
5286;DHT22;2665;53.112;7.358;2023-09-19T05:22:39;13.80;99.90
5286;DHT22;2665;53.112;7.358;2023-09-19T05:25:06;13.80;99.90
5286;DHT22;2665;53.112;7.358;2023-09-19T05:27:32;13.80;99.90
5286;DHT22;2665;53.112;7.358;2023-09-19T05:29:59;13.80;99.90
5286;DHT22;2665;53.112;7.358;2023-09-19T05:32:25;13.80;99.90
5286;DHT22;2665;53.112;7.358;2023-09-19T05:34:50;13.90;99.90
5286;DHT22;2665;53.112;7.358;2023-09-19T05:37:19;13.90;99.90
5286;DHT22;2665;53.112;7.358;2023-09-19T05:39:45;13.90;99.90
5286;DHT22;2665;53.112;7.358;2023-09-19T05:42:11;13.90;99.90
5286;DHT22;2665;53.112;7.358;2023-09-19T05:44:36;13.90;99.90
5286;DHT22;2665;53.112;7.358;2023-09-19T05:47:03;13.90;99.90
5286;DHT22;2665;53.112;7.358;2023-09-19T05:49:29;13.90;99.90
5286;DHT22;2665;53.112;7.358;2023-09-19T05:51:55;13.90;99.90
5286;DHT22;2665;53.112;7.358;2023-09-19T05:54:24;13.90;99.90
5286;DHT22;2665;53.112;7.358;2023-09-19T05:56:50;13.90;99.90
5286;DHT22;2665;53.112;7.358;2023-09-19T05:59:19;13.90;99.90
5286;DHT22;2665;53.112;7.358;2023-09-19T06:01:44;13.90;99.90
5286;DHT22;2665;53.112;7.358;2023-09-19T06:04:11;14.00;99.90
5286;DHT22;2665;53.112;7.358;2023-09-19T06:06:37;14.00;99.90
5286;DHT22;2665;53.112;7.358;2023-09-19T06:09:05;14.00;99.90
5286;DHT22;2665;53.112;7.358;2023-09-19T06:11:31;14.00;99.90
5286;DHT22;2665;53.112;7.358;2023-09-19T06:14:03;14.10;1.00
5286;DHT22;2665;53.112;7.358;2023-09-19T06:16:29;14.10;1.00
5286;DHT22;2665;53.112;7.358;2023-09-19T06:18:55;14.10;1.00
5286;DHT22;2665;53.112;7.358;2023-09-19T06:21:24;14.10;99.90
5286;DHT22;2665;53.112;7.358;2023-09-19T06:23:50;14.10;99.90
5286;DHT22;2665;53.112;7.358;2023-09-19T06:26:16;14.10;99.90
5286;DHT22;2665;53.112;7.358;2023-09-19T06:28:42;14.20;1.00
5286;DHT22;2665;53.112;7.358;2023-09-19T06:31:09;14.20;99.90
5286;DHT22;2665;53.112;7.358;2023-09-19T06:33:38;14.20;5.70
5286;DHT22;2665;53.112;7.358;2023-09-19T06:36:05;14.20;1.00
5286;DHT22;2665;53.112;7.358;2023-09-19T06:38:31;14.20;99.90
5286;DHT22;2665;53.112;7.358;2023-09-19T06:40:59;14.20;1.00
5286;DHT22;2665;53.112;7.358;2023-09-19T06:43:26;14.20;1.00
5286;DHT22;2665;53.112;7.358;2023-09-19T06:45:53;14.20;99.90
5286;DHT22;2665;53.112;7.358;2023-09-19T06:48:20;14.20;1.00
5286;DHT22;2665;53.112;7.358;2023-09-19T06:50:46;14.20;1.00
5286;DHT22;2665;53.112;7.358;2023-09-19T06:53:13;14.20;1.00
5286;DHT22;2665;53.112;7.358;2023-09-19T06:55:39;14.20;99.90
5286;DHT22;2665;53.112;7.358;2023-09-19T06:58:05;14.20;1.00
5286;DHT22;2665;53.112;7.358;2023-09-19T07:00:31;14.20;99.90
5286;DHT22;2665;53.112;7.358;2023-09-19T07:03:10;14.20;99.90
5286;DHT22;2665;53.112;7.358;2023-09-19T07:05:40;14.20;99.90
5286;DHT22;2665;53.112;7.358;2023-09-19T07:08:07;14.30;99.90
5286;DHT22;2665;53.112;7.358;2023-09-19T07:10:35;14.30;1.00
5286;DHT22;2665;53.112;7.358;2023-09-19T07:13:02;14.30;99.90
5286;DHT22;2665;53.112;7.358;2023-09-19T07:15:29;14.40;99.90
5286;DHT22;2665;53.112;7.358;2023-09-19T07:17:56;14.50;99.90
5286;DHT22;2665;53.112;7.358;2023-09-19T07:20:23;14.50;99.90
5286;DHT22;2665;53.112;7.358;2023-09-19T07:22:52;14.50;99.90
5286;DHT22;2665;53.112;7.358;2023-09-19T07:25:17;14.60;1.00
5286;DHT22;2665;53.112;7.358;2023-09-19T07:27:44;14.60;1.00
5286;DHT22;2665;53.112;7.358;2023-09-19T07:30:10;14.70;1.00
5286;DHT22;2665;53.112;7.358;2023-09-19T07:32:37;14.70;1.00
5286;DHT22;2665;53.112;7.358;2023-09-19T07:35:04;14.80;99.90
5286;DHT22;2665;53.112;7.358;2023-09-19T07:37:34;14.90;1.00
5286;DHT22;2665;53.112;7.358;2023-09-19T07:40:00;15.00;1.00
5286;DHT22;2665;53.112;7.358;2023-09-19T07:42:38;15.10;1.00
5286;DHT22;2665;53.112;7.358;2023-09-19T07:45:07;15.20;1.00
5286;DHT22;2665;53.112;7.358;2023-09-19T07:47:33;15.20;99.90
5286;DHT22;2665;53.112;7.358;2023-09-19T07:50:00;15.20;19.10
5286;DHT22;2665;53.112;7.358;2023-09-19T07:52:29;15.20;99.90
5286;DHT22;2665;53.112;7.358;2023-09-19T07:54:55;15.30;99.90
5286;DHT22;2665;53.112;7.358;2023-09-19T07:57:22;15.30;99.90
5286;DHT22;2665;53.112;7.358;2023-09-19T07:59:48;15.30;99.90
5286;DHT22;2665;53.112;7.358;2023-09-19T08:02:14;15.30;1.00
5286;DHT22;2665;53.112;7.358;2023-09-19T08:04:45;15.40;1.00
5286;DHT22;2665;53.112;7.358;2023-09-19T08:07:14;15.50;1.00
5286;DHT22;2665;53.112;7.358;2023-09-19T08:09:40;15.60;1.00
5286;DHT22;2665;53.112;7.358;2023-09-19T08:12:07;15.70;1.00
5286;DHT22;2665;53.112;7.358;2023-09-19T08:14:36;15.70;1.00
5286;DHT22;2665;53.112;7.358;2023-09-19T08:17:02;15.80;1.00
5286;DHT22;2665;53.112;7.358;2023-09-19T08:19:27;15.80;1.00
5286;DHT22;2665;53.112;7.358;2023-09-19T08:21:58;15.80;1.00
5286;DHT22;2665;53.112;7.358;2023-09-19T08:24:28;15.70;1.00
5286;DHT22;2665;53.112;7.358;2023-09-19T08:26:55;15.70;1.00
5286;DHT22;2665;53.112;7.358;2023-09-19T08:29:22;15.60;1.00
5286;DHT22;2665;53.112;7.358;2023-09-19T08:31:57;15.60;1.00
5286;DHT22;2665;53.112;7.358;2023-09-19T08:34:26;15.60;1.00
5286;DHT22;2665;53.112;7.358;2023-09-19T08:36:53;15.60;1.00
5286;DHT22;2665;53.112;7.358;2023-09-19T08:39:25;15.70;1.00
5286;DHT22;2665;53.112;7.358;2023-09-19T08:42:01;15.70;1.00
5286;DHT22;2665;53.112;7.358;2023-09-19T08:44:28;15.70;1.00
5286;DHT22;2665;53.112;7.358;2023-09-19T08:47:29;15.70;1.00
5286;DHT22;2665;53.112;7.358;2023-09-19T08:50:07;15.80;1.00
5286;DHT22;2665;53.112;7.358;2023-09-19T08:52:43;15.90;1.00
5286;DHT22;2665;53.112;7.358;2023-09-19T08:55:12;15.90;1.00
5286;DHT22;2665;53.112;7.358;2023-09-19T08:57:39;16.00;99.90
5286;DHT22;2665;53.112;7.358;2023-09-19T09:00:08;16.00;99.90
5286;DHT22;2665;53.112;7.358;2023-09-19T09:02:38;16.20;99.90
5286;DHT22;2665;53.112;7.358;2023-09-19T09:05:10;16.30;99.90
5286;DHT22;2665;53.112;7.358;2023-09-19T09:07:40;16.40;99.90
5286;DHT22;2665;53.112;7.358;2023-09-19T09:10:07;16.40;99.90
5286;DHT22;2665;53.112;7.358;2023-09-19T09:12:34;16.50;99.90
5286;DHT22;2665;53.112;7.358;2023-09-19T09:15:02;16.50;99.90
5286;DHT22;2665;53.112;7.358;2023-09-19T09:17:29;16.50;99.90
5286;DHT22;2665;53.112;7.358;2023-09-19T09:19:55;16.60;99.90
5286;DHT22;2665;53.112;7.358;2023-09-19T09:22:21;16.70;99.90
5286;DHT22;2665;53.112;7.358;2023-09-19T09:24:54;16.70;91.80
5286;DHT22;2665;53.112;7.358;2023-09-19T09:27:23;16.60;57.70
5286;DHT22;2665;53.112;7.358;2023-09-19T09:29:50;16.70;7.80
5286;DHT22;2665;53.112;7.358;2023-09-19T09:32:24;16.70;77.50
5286;DHT22;2665;53.112;7.358;2023-09-19T09:34:54;16.80;99.90
5286;DHT22;2665;53.112;7.358;2023-09-19T09:37:20;16.90;64.80
5286;DHT22;2665;53.112;7.358;2023-09-19T09:40:01;17.00;99.90
5286;DHT22;2665;53.112;7.358;2023-09-19T09:42:42;17.00;99.90
5286;DHT22;2665;53.112;7.358;2023-09-19T09:45:24;17.10;1.00
5286;DHT22;2665;53.112;7.358;2023-09-19T09:47:59;17.00;1.00
5286;DHT22;2665;53.112;7.358;2023-09-19T09:53:19;17.20;1.00
5286;DHT22;2665;53.112;7.358;2023-09-19T09:58:36;17.40;1.00
5286;DHT22;2665;53.112;7.358;2023-09-19T10:01:05;17.50;1.00
5286;DHT22;2665;53.112;7.358;2023-09-19T10:03:41;17.50;1.00
5286;DHT22;2665;53.112;7.358;2023-09-19T10:06:14;17.60;1.00
5286;DHT22;2665;53.112;7.358;2023-09-19T10:09:07;17.70;1.00
5286;DHT22;2665;53.112;7.358;2023-09-19T10:11:40;17.70;1.00
5286;DHT22;2665;53.112;7.358;2023-09-19T10:14:10;17.80;99.90
5286;DHT22;2665;53.112;7.358;2023-09-19T10:16:41;17.90;99.90
5286;DHT22;2665;53.112;7.358;2023-09-19T10:19:09;17.80;99.90
5286;DHT22;2665;53.112;7.358;2023-09-19T10:21:36;17.70;99.90
5286;DHT22;2665;53.112;7.358;2023-09-19T10:24:05;17.70;99.90
5286;DHT22;2665;53.112;7.358;2023-09-19T10:26:35;17.80;99.90
5286;DHT22;2665;53.112;7.358;2023-09-19T10:29:03;17.90;99.90
5286;DHT22;2665;53.112;7.358;2023-09-19T10:31:33;17.80;99.90
5286;DHT22;2665;53.112;7.358;2023-09-19T10:34:03;17.80;99.90
5286;DHT22;2665;53.112;7.358;2023-09-19T10:36:32;17.90;99.90
5286;DHT22;2665;53.112;7.358;2023-09-19T10:39:02;17.90;99.90
5286;DHT22;2665;53.112;7.358;2023-09-19T10:41:31;18.00;99.90
5286;DHT22;2665;53.112;7.358;2023-09-19T10:44:02;18.10;99.90
5286;DHT22;2665;53.112;7.358;2023-09-19T10:46:28;18.10;99.90
5286;DHT22;2665;53.112;7.358;2023-09-19T10:49:02;18.00;99.90
5286;DHT22;2665;53.112;7.358;2023-09-19T10:51:38;18.00;99.90
5286;DHT22;2665;53.112;7.358;2023-09-19T10:54:13;17.90;99.90
5286;DHT22;2665;53.112;7.358;2023-09-19T10:56:50;18.00;99.90
5286;DHT22;2665;53.112;7.358;2023-09-19T10:59:21;18.30;99.90
5286;DHT22;2665;53.112;7.358;2023-09-19T11:01:48;18.40;99.90
5286;DHT22;2665;53.112;7.358;2023-09-19T11:09:50;18.90;1.00
5286;DHT22;2665;53.112;7.358;2023-09-19T11:14:58;19.50;1.00
5286;DHT22;2665;53.112;7.358;2023-09-19T11:17:37;19.40;1.00
5286;DHT22;2665;53.112;7.358;2023-09-19T11:30:52;19.70;1.00
5286;DHT22;2665;53.112;7.358;2023-09-19T11:33:27;20.10;1.00
5286;DHT22;2665;53.112;7.358;2023-09-19T11:36:13;19.90;1.00
5286;DHT22;2665;53.112;7.358;2023-09-19T11:43:54;20.50;1.00
5286;DHT22;2665;53.112;7.358;2023-09-19T11:49:28;20.40;1.00
5286;DHT22;2665;53.112;7.358;2023-09-19T11:51:57;20.30;1.00
5286;DHT22;2665;53.112;7.358;2023-09-19T11:54:26;20.30;1.00
5286;DHT22;2665;53.112;7.358;2023-09-19T11:56:57;20.10;1.00
5286;DHT22;2665;53.112;7.358;2023-09-19T11:59:25;19.90;1.00
5286;DHT22;2665;53.112;7.358;2023-09-19T12:02:03;20.20;1.00
5286;DHT22;2665;53.112;7.358;2023-09-19T12:07:05;21.10;1.00
5286;DHT22;2665;53.112;7.358;2023-09-19T12:09:39;20.80;1.00
5286;DHT22;2665;53.112;7.358;2023-09-19T12:12:07;20.40;1.00
5286;DHT22;2665;53.112;7.358;2023-09-19T12:14:32;19.90;1.00
5286;DHT22;2665;53.112;7.358;2023-09-19T12:16:59;19.80;1.00
5286;DHT22;2665;53.112;7.358;2023-09-19T12:19:26;19.70;1.00
5286;DHT22;2665;53.112;7.358;2023-09-19T12:22:00;19.50;1.00
5286;DHT22;2665;53.112;7.358;2023-09-19T12:24:34;19.30;1.00
5286;DHT22;2665;53.112;7.358;2023-09-19T12:27:05;19.30;1.00
5286;DHT22;2665;53.112;7.358;2023-09-19T12:29:32;19.30;1.00
5286;DHT22;2665;53.112;7.358;2023-09-19T12:32:07;19.20;1.00
5286;DHT22;2665;53.112;7.358;2023-09-19T12:34:33;19.10;1.00
5286;DHT22;2665;53.112;7.358;2023-09-19T12:37:13;19.00;1.00
5286;DHT22;2665;53.112;7.358;2023-09-19T12:39:53;18.90;1.00
5286;DHT22;2665;53.112;7.358;2023-09-19T12:42:23;18.80;1.00
5286;DHT22;2665;53.112;7.358;2023-09-19T12:44:51;18.80;1.00
5286;DHT22;2665;53.112;7.358;2023-09-19T12:47:24;18.70;1.00
5286;DHT22;2665;53.112;7.358;2023-09-19T12:50:09;18.70;1.00
5286;DHT22;2665;53.112;7.358;2023-09-19T12:52:51;18.70;1.00
5286;DHT22;2665;53.112;7.358;2023-09-19T12:55:30;18.70;1.00
5286;DHT22;2665;53.112;7.358;2023-09-19T13:00:35;18.70;1.00
5286;DHT22;2665;53.112;7.358;2023-09-19T13:05:55;18.60;1.00
5286;DHT22;2665;53.112;7.358;2023-09-19T13:08:26;18.40;1.00
5286;DHT22;2665;53.112;7.358;2023-09-19T13:13:45;18.40;1.00
5286;DHT22;2665;53.112;7.358;2023-09-19T13:16:14;18.40;1.00
5286;DHT22;2665;53.112;7.358;2023-09-19T13:18:47;18.40;1.00
5286;DHT22;2665;53.112;7.358;2023-09-19T13:21:16;18.50;1.00
5286;DHT22;2665;53.112;7.358;2023-09-19T13:23:52;18.50;1.00
5286;DHT22;2665;53.112;7.358;2023-09-19T13:26:20;18.50;1.00
5286;DHT22;2665;53.112;7.358;2023-09-19T13:28:46;18.50;1.00
5286;DHT22;2665;53.112;7.358;2023-09-19T13:31:13;18.60;1.00
5286;DHT22;2665;53.112;7.358;2023-09-19T13:33:48;18.60;1.00
5286;DHT22;2665;53.112;7.358;2023-09-19T13:36:15;18.60;1.00
5286;DHT22;2665;53.112;7.358;2023-09-19T13:38:41;18.50;1.00
5286;DHT22;2665;53.112;7.358;2023-09-19T13:41:10;18.50;1.00
5286;DHT22;2665;53.112;7.358;2023-09-19T13:43:37;18.50;1.00
5286;DHT22;2665;53.112;7.358;2023-09-19T13:46:04;18.50;1.00
5286;DHT22;2665;53.112;7.358;2023-09-19T13:48:30;18.50;1.00
5286;DHT22;2665;53.112;7.358;2023-09-19T13:50:56;18.50;1.00
5286;DHT22;2665;53.112;7.358;2023-09-19T13:53:22;18.50;1.00
5286;DHT22;2665;53.112;7.358;2023-09-19T13:55:49;18.50;1.00
5286;DHT22;2665;53.112;7.358;2023-09-19T13:58:15;18.50;1.00
5286;DHT22;2665;53.112;7.358;2023-09-19T14:00:40;18.50;1.00
5286;DHT22;2665;53.112;7.358;2023-09-19T14:03:06;18.50;1.00
5286;DHT22;2665;53.112;7.358;2023-09-19T14:05:32;18.50;1.00
5286;DHT22;2665;53.112;7.358;2023-09-19T14:07:58;18.50;1.00
5286;DHT22;2665;53.112;7.358;2023-09-19T14:10:29;18.50;1.00
5286;DHT22;2665;53.112;7.358;2023-09-19T14:12:57;18.50;1.00
5286;DHT22;2665;53.112;7.358;2023-09-19T14:15:26;18.50;1.00
5286;DHT22;2665;53.112;7.358;2023-09-19T14:17:57;18.50;1.00
5286;DHT22;2665;53.112;7.358;2023-09-19T14:20:25;18.60;1.00
5286;DHT22;2665;53.112;7.358;2023-09-19T14:22:53;18.60;1.00
5286;DHT22;2665;53.112;7.358;2023-09-19T14:25:18;18.50;1.00
5286;DHT22;2665;53.112;7.358;2023-09-19T14:27:44;18.50;1.00
5286;DHT22;2665;53.112;7.358;2023-09-19T14:30:10;18.50;1.00
5286;DHT22;2665;53.112;7.358;2023-09-19T14:32:36;18.50;1.00
5286;DHT22;2665;53.112;7.358;2023-09-19T14:35:03;18.50;1.00
5286;DHT22;2665;53.112;7.358;2023-09-19T14:37:28;18.50;1.00
5286;DHT22;2665;53.112;7.358;2023-09-19T14:39:54;18.50;1.00
5286;DHT22;2665;53.112;7.358;2023-09-19T14:42:20;18.50;1.00
5286;DHT22;2665;53.112;7.358;2023-09-19T14:44:46;18.60;1.00
5286;DHT22;2665;53.112;7.358;2023-09-19T14:47:13;18.70;1.00
5286;DHT22;2665;53.112;7.358;2023-09-19T14:49:39;18.90;1.00
5286;DHT22;2665;53.112;7.358;2023-09-19T14:52:09;18.90;1.00
5286;DHT22;2665;53.112;7.358;2023-09-19T14:54:36;19.00;1.00
5286;DHT22;2665;53.112;7.358;2023-09-19T14:57:04;19.00;1.00
5286;DHT22;2665;53.112;7.358;2023-09-19T14:59:33;18.90;1.00
5286;DHT22;2665;53.112;7.358;2023-09-19T15:02:05;19.00;1.00
5286;DHT22;2665;53.112;7.358;2023-09-19T15:04:31;18.90;1.00
5286;DHT22;2665;53.112;7.358;2023-09-19T15:06:56;18.90;1.00
5286;DHT22;2665;53.112;7.358;2023-09-19T15:09:23;18.90;1.00
5286;DHT22;2665;53.112;7.358;2023-09-19T15:11:52;18.90;1.00
5286;DHT22;2665;53.112;7.358;2023-09-19T15:14:18;18.90;1.00
5286;DHT22;2665;53.112;7.358;2023-09-19T15:16:43;18.90;1.00
5286;DHT22;2665;53.112;7.358;2023-09-19T15:19:09;18.90;1.00
5286;DHT22;2665;53.112;7.358;2023-09-19T15:21:36;18.90;1.00
5286;DHT22;2665;53.112;7.358;2023-09-19T15:24:03;18.90;1.00
5286;DHT22;2665;53.112;7.358;2023-09-19T15:26:30;18.90;1.00
5286;DHT22;2665;53.112;7.358;2023-09-19T15:28:56;18.90;1.00
5286;DHT22;2665;53.112;7.358;2023-09-19T15:31:22;18.90;1.00
5286;DHT22;2665;53.112;7.358;2023-09-19T15:33:47;18.90;1.00
5286;DHT22;2665;53.112;7.358;2023-09-19T15:36:14;18.80;1.00
5286;DHT22;2665;53.112;7.358;2023-09-19T15:38:59;18.80;1.00
5286;DHT22;2665;53.112;7.358;2023-09-19T15:41:30;18.80;1.00
5286;DHT22;2665;53.112;7.358;2023-09-19T15:43:57;18.80;1.00
5286;DHT22;2665;53.112;7.358;2023-09-19T15:46:25;18.80;1.00
5286;DHT22;2665;53.112;7.358;2023-09-19T15:48:55;18.70;1.00
5286;DHT22;2665;53.112;7.358;2023-09-19T15:51:21;18.70;1.00
5286;DHT22;2665;53.112;7.358;2023-09-19T15:53:49;18.70;1.00
5286;DHT22;2665;53.112;7.358;2023-09-19T15:56:18;18.70;1.00
5286;DHT22;2665;53.112;7.358;2023-09-19T15:58:47;18.60;1.00
5286;DHT22;2665;53.112;7.358;2023-09-19T16:01:13;18.60;1.00
5286;DHT22;2665;53.112;7.358;2023-09-19T16:03:46;18.50;1.00
5286;DHT22;2665;53.112;7.358;2023-09-19T16:06:15;18.50;1.00
5286;DHT22;2665;53.112;7.358;2023-09-19T16:08:42;18.50;1.00
5286;DHT22;2665;53.112;7.358;2023-09-19T16:11:08;18.50;1.00
5286;DHT22;2665;53.112;7.358;2023-09-19T16:13:35;18.50;1.00
5286;DHT22;2665;53.112;7.358;2023-09-19T16:16:01;18.50;1.00
5286;DHT22;2665;53.112;7.358;2023-09-19T16:18:26;18.50;1.00
5286;DHT22;2665;53.112;7.358;2023-09-19T16:20:52;18.50;1.00
5286;DHT22;2665;53.112;7.358;2023-09-19T16:23:18;18.50;1.00
5286;DHT22;2665;53.112;7.358;2023-09-19T16:25:46;18.50;1.00
5286;DHT22;2665;53.112;7.358;2023-09-19T16:28:12;18.50;1.00
5286;DHT22;2665;53.112;7.358;2023-09-19T16:30:38;18.50;1.00
5286;DHT22;2665;53.112;7.358;2023-09-19T16:33:04;18.50;1.00
5286;DHT22;2665;53.112;7.358;2023-09-19T16:35:31;18.50;1.00
5286;DHT22;2665;53.112;7.358;2023-09-19T16:37:56;18.50;1.00
5286;DHT22;2665;53.112;7.358;2023-09-19T16:40:22;18.40;1.00
5286;DHT22;2665;53.112;7.358;2023-09-19T16:42:48;18.40;1.00
5286;DHT22;2665;53.112;7.358;2023-09-19T16:45:14;18.40;1.00
5286;DHT22;2665;53.112;7.358;2023-09-19T16:47:40;18.40;1.00
5286;DHT22;2665;53.112;7.358;2023-09-19T16:50:06;18.40;1.00
5286;DHT22;2665;53.112;7.358;2023-09-19T16:52:34;18.40;1.00
5286;DHT22;2665;53.112;7.358;2023-09-19T16:54:59;18.40;1.00
5286;DHT22;2665;53.112;7.358;2023-09-19T16:57:25;18.40;1.00
5286;DHT22;2665;53.112;7.358;2023-09-19T16:59:51;18.50;1.00
5286;DHT22;2665;53.112;7.358;2023-09-19T17:02:16;18.40;1.00
5286;DHT22;2665;53.112;7.358;2023-09-19T17:04:42;18.40;1.00
5286;DHT22;2665;53.112;7.358;2023-09-19T17:07:09;18.40;1.00
5286;DHT22;2665;53.112;7.358;2023-09-19T17:09:35;18.50;1.00
5286;DHT22;2665;53.112;7.358;2023-09-19T17:12:01;18.40;1.00
5286;DHT22;2665;53.112;7.358;2023-09-19T17:14:28;18.30;1.00
5286;DHT22;2665;53.112;7.358;2023-09-19T17:16:55;18.20;1.00
5286;DHT22;2665;53.112;7.358;2023-09-19T17:19:21;18.00;24.90
5286;DHT22;2665;53.112;7.358;2023-09-19T17:21:49;17.80;75.80
5286;DHT22;2665;53.112;7.358;2023-09-19T17:24:15;17.70;99.90
5286;DHT22;2665;53.112;7.358;2023-09-19T17:26:40;17.60;99.90
5286;DHT22;2665;53.112;7.358;2023-09-19T17:29:08;17.50;99.90
5286;DHT22;2665;53.112;7.358;2023-09-19T17:31:35;17.50;1.00
5286;DHT22;2665;53.112;7.358;2023-09-19T17:34:02;17.40;1.00
5286;DHT22;2665;53.112;7.358;2023-09-19T17:36:27;17.40;1.00
5286;DHT22;2665;53.112;7.358;2023-09-19T17:38:55;17.40;1.00
5286;DHT22;2665;53.112;7.358;2023-09-19T17:41:21;17.40;1.00
5286;DHT22;2665;53.112;7.358;2023-09-19T17:43:55;17.40;1.00
5286;DHT22;2665;53.112;7.358;2023-09-19T17:46:21;17.50;1.00
5286;DHT22;2665;53.112;7.358;2023-09-19T17:48:56;17.50;1.00
5286;DHT22;2665;53.112;7.358;2023-09-19T17:51:22;17.50;1.00
5286;DHT22;2665;53.112;7.358;2023-09-19T17:53:48;17.50;1.00
5286;DHT22;2665;53.112;7.358;2023-09-19T17:56:15;17.50;1.00
5286;DHT22;2665;53.112;7.358;2023-09-19T17:58:42;17.60;99.90
5286;DHT22;2665;53.112;7.358;2023-09-19T18:01:10;17.60;99.90
5286;DHT22;2665;53.112;7.358;2023-09-19T18:03:36;17.50;1.00
5286;DHT22;2665;53.112;7.358;2023-09-19T18:06:02;17.50;1.00
5286;DHT22;2665;53.112;7.358;2023-09-19T18:08:28;17.50;1.00
5286;DHT22;2665;53.112;7.358;2023-09-19T18:10:54;17.50;1.00